Time,TemperatureF,DewpointF,PressureIn,WindDirection,WindDirectionDegrees,WindSpeedMPH,WindSpeedGustMPH,Humidity,HourlyPrecipIn,Conditions,Clouds,dailyrainin,SoftwareType,DateUTC
2013-05-28 00:14:00,70.4,63.9,30.10,NE,41,0.0,0.0,80,0.00,,,0.00,WeatherDisplay:10.37,2013-05-28 04:14:00,
2013-05-28 00:29:00,70.3,63.8,30.10,ENE,65,0.0,0.0,80,0.00,,,0.00,WeatherDisplay:10.37,2013-05-28 04:29:00,
2013-05-28 00:44:00,69.9,63.8,30.10,ENE,65,0.0,0.0,81,0.00,,,0.00,WeatherDisplay:10.37,2013-05-28 04:44:00,
2013-05-28 00:59:00,69.6,63.9,30.10,ENE,65,0.0,0.0,82,0.00,,,0.00,WeatherDisplay:10.37,2013-05-28 04:59:00,
2013-05-28 01:14:00,69.3,63.6,30.10,ENE,65,0.0,0.0,82,0.00,,,0.00,WeatherDisplay:10.37,2013-05-28 05:14:00,
2013-05-28 01:29:00,69.1,63.7,30.10,ENE,65,0.0,0.0,83,0.00,,,0.00,WeatherDisplay:10.37,2013-05-28 05:29:00,
2013-05-28 01:44:00,68.9,63.9,30.10,ENE,65,0.0,0.0,84,0.00,,,0.00,WeatherDisplay:10.37,2013-05-28 05:44:00,
2013-05-28 01:59:00,68.9,63.9,30.09,ENE,65,0.0,0.0,84,0.00,,,0.00,WeatherDisplay:10.37,2013-05-28 05:59:00,
2013-05-28 02:14:00,68.8,64.1,30.08,ENE,65,0.0,0.0,85,0.00,,,0.00,WeatherDisplay:10.37,2013-05-28 06:14:00,
2013-05-28 02:29:00,68.4,63.7,30.08,ENE,65,0.0,0.0,85,0.00,,,0.00,WeatherDisplay:10.37,2013-05-28 06:29:00,
2013-05-28 02:44:00,68.3,63.9,30.07,ENE,65,0.0,0.0,86,0.00,,,0.00,WeatherDisplay:10.37,2013-05-28 06:44:00,
2013-05-28 02:59:00,68.3,63.9,30.07,ENE,65,0.0,0.0,86,0.00,,,0.00,WeatherDisplay:10.37,2013-05-28 06:59:00,
2013-05-28 03:14:00,68.3,64.3,30.06,ENE,65,0.0,0.0,87,0.00,,,0.00,WeatherDisplay:10.37,2013-05-28 07:14:00,
2013-05-28 03:29:00,68.3,64.3,30.05,ENE,65,0.0,0.0,87,0.00,,,0.00,WeatherDisplay:10.37,2013-05-28 07:29:00,
2013-05-28 03:44:00,68.3,64.3,30.05,ENE,65,0.0,0.0,87,0.00,,,0.00,WeatherDisplay:10.37,2013-05-28 07:44:00,
2013-05-28 03:59:00,68.1,64.4,30.05,ENE,65,0.0,0.0,88,0.00,,,0.00,WeatherDisplay:10.37,2013-05-28 07:59:00,
2013-05-28 04:14:00,68.1,64.4,30.05,ENE,65,0.0,0.0,88,0.00,,,0.00,WeatherDisplay:10.37,2013-05-28 08:14:00,
2013-05-28 04:29:00,67.9,64.2,30.05,ENE,65,0.0,0.0,88,0.00,,,0.00,WeatherDisplay:10.37,2013-05-28 08:29:00,
2013-05-28 04:44:00,67.9,64.5,30.05,ENE,65,0.0,0.0,89,0.00,,,0.00,WeatherDisplay:10.37,2013-05-28 08:44:00,
2013-05-28 04:59:00,67.8,64.4,30.04,ENE,65,0.0,0.0,89,0.00,,,0.00,WeatherDisplay:10.37,2013-05-28 08:59:00,
2013-05-28 05:14:00,67.8,64.4,30.05,ENE,65,0.0,0.0,89,0.00,,,0.00,WeatherDisplay:10.37,2013-05-28 09:14:00,
2013-05-28 05:29:00,67.7,64.3,30.05,ENE,65,0.0,0.0,89,0.00,,,0.00,WeatherDisplay:10.37,2013-05-28 09:29:00,
2013-05-28 05:44:00,67.4,64.1,30.05,ENE,65,0.0,0.0,89,0.00,,,0.00,WeatherDisplay:10.37,2013-05-28 09:44:00,
2013-05-28 05:59:00,67.3,63.9,30.05,ENE,65,0.0,0.0,89,0.00,CLR,,0.00,WeatherDisplay:10.37,2013-05-28 09:59:00,
2013-05-28 06:14:00,67.4,64.4,30.05,ENE,65,0.0,0.0,90,0.00,CLR,,0.00,WeatherDisplay:10.37,2013-05-28 10:14:00,
2013-05-28 06:29:00,67.3,64.3,30.06,ENE,65,0.0,0.0,90,0.00,CLR,,0.00,WeatherDisplay:10.37,2013-05-28 10:29:00,
2013-05-28 06:44:00,67.1,64.1,30.06,ENE,65,0.0,0.0,90,0.00,CLR,,0.00,WeatherDisplay:10.37,2013-05-28 10:44:00,
2013-05-28 06:59:00,67.4,64.3,30.07,ENE,65,0.0,0.0,90,0.00,CLR,,0.00,WeatherDisplay:10.37,2013-05-28 10:59:00,
2013-05-28 07:14:00,67.7,65.0,30.07,ENE,65,0.0,0.0,91,0.00,CLR,,0.00,WeatherDisplay:10.37,2013-05-28 11:14:00,
2013-05-28 07:29:00,68.4,65.7,30.07,ENE,65,0.0,0.0,91,0.00,CLR,,0.00,WeatherDisplay:10.37,2013-05-28 11:29:00,
2013-05-28 07:44:00,69.3,66.2,30.08,ENE,65,0.0,0.0,90,0.00,CLR,,0.00,WeatherDisplay:10.37,2013-05-28 11:44:00,
2013-05-28 07:59:00,70.3,67.2,30.08,ENE,61,0.0,0.0,90,0.00,CLR,,0.00,WeatherDisplay:10.37,2013-05-28 11:59:00,
2013-05-28 08:14:00,71.4,67.7,30.07,ENE,60,0.0,0.0,88,0.00,CLR,,0.00,WeatherDisplay:10.37,2013-05-28 12:14:00,
2013-05-28 08:29:00,72.8,68.4,30.08,East,97,0.0,5.0,86,0.00,CLR,,0.00,WeatherDisplay:10.37,2013-05-28 12:29:00,
2013-05-28 08:44:00,74.9,68.7,30.08,ENE,71,0.0,6.0,81,0.00,CLR,,0.00,WeatherDisplay:10.37,2013-05-28 12:44:00,
2013-05-28 08:59:00,77.1,68.9,30.08,ESE,104,0.0,7.0,76,0.00,CLR,,0.00,WeatherDisplay:10.37,2013-05-28 12:59:00,
2013-05-28 09:14:00,78.1,67.5,30.08,ESE,115,0.0,12.0,70,0.00,CLR,,0.00,WeatherDisplay:10.37,2013-05-28 13:14:00,
2013-05-28 09:29:00,79.4,67.5,30.08,NE,54,0.0,9.0,67,0.00,CLR,,0.00,WeatherDisplay:10.37,2013-05-28 13:29:00,
2013-05-28 09:44:00,80.9,68.0,30.08,ESE,103,1.0,8.0,65,0.00,CLR,,0.00,WeatherDisplay:10.37,2013-05-28 13:44:00,
2013-05-28 09:59:00,81.4,68.5,30.08,NE,48,1.0,10.0,65,0.00,CLR,,0.00,WeatherDisplay:10.37,2013-05-28 13:59:00,
2013-05-28 10:14:00,83.2,67.9,30.08,East,87,1.0,7.0,60,0.00,CLR,,0.00,WeatherDisplay:10.37,2013-05-28 14:14:00,
2013-05-28 10:29:00,82.4,67.6,30.09,ENE,77,0.0,8.0,61,0.00,CLR,,0.00,WeatherDisplay:10.37,2013-05-28 14:29:00,
2013-05-28 10:44:00,83.1,68.3,30.09,ESE,116,0.0,10.0,61,0.00,CLR,,0.00,WeatherDisplay:10.37,2013-05-28 14:44:00,
2013-05-28 10:59:00,84.1,67.7,30.09,ESE,112,1.0,10.0,58,0.00,CLR,,0.00,WeatherDisplay:10.37,2013-05-28 14:59:00,
2013-05-28 11:14:00,85.5,67.5,30.08,ENE,75,0.0,13.0,55,0.00,CLR,,0.00,WeatherDisplay:10.37,2013-05-28 15:14:00,
2013-05-28 11:29:00,86.3,67.2,30.09,ENE,71,0.0,8.0,53,0.00,CLR,,0.00,WeatherDisplay:10.37,2013-05-28 15:29:00,
2013-05-28 11:44:00,84.9,66.9,30.09,ESE,109,1.0,12.0,55,0.00,CLR,,0.00,WeatherDisplay:10.37,2013-05-28 15:44:00,
2013-05-28 11:59:00,84.7,67.3,30.09,East,80,1.0,8.0,56,0.00,CLR,,0.00,WeatherDisplay:10.37,2013-05-28 15:59:00,
2013-05-28 12:14:00,86.2,68.1,30.09,NE,53,0.0,8.0,55,0.00,CLR,,0.00,WeatherDisplay:10.37,2013-05-28 16:14:00,
2013-05-28 12:29:00,86.8,67.0,30.08,ENE,75,3.0,8.0,52,0.00,CLR,,0.00,WeatherDisplay:10.37,2013-05-28 16:29:00,
2013-05-28 12:44:00,85.9,67.9,30.08,ENE,59,0.0,7.0,55,0.00,CLR,,0.00,WeatherDisplay:10.37,2013-05-28 16:44:00,
2013-05-28 12:59:00,86.5,67.9,30.07,ENE,71,1.0,12.0,54,0.00,CLR,,0.00,WeatherDisplay:10.37,2013-05-28 16:59:00,
2013-05-28 13:14:00,85.9,67.9,30.07,ENE,73,0.0,12.0,55,0.00,CLR,,0.00,WeatherDisplay:10.37,2013-05-28 17:14:00,
2013-05-28 13:29:00,85.7,67.7,30.07,ESE,103,0.0,8.0,55,0.00,CLR,,0.00,WeatherDisplay:10.37,2013-05-28 17:29:00,
2013-05-28 13:44:00,87.0,67.2,30.06,NNE,15,1.0,10.0,52,0.00,CLR,,0.00,WeatherDisplay:10.37,2013-05-28 17:44:00,
2013-05-28 13:59:00,88.4,68.0,30.06,NE,54,0.0,9.0,51,0.00,CLR,,0.00,WeatherDisplay:10.37,2013-05-28 17:59:00,
2013-05-28 14:14:00,87.8,67.4,30.06,NE,49,0.0,7.0,51,0.00,CLR,,0.00,WeatherDisplay:10.37,2013-05-28 18:14:00,
2013-05-28 14:29:00,87.0,67.8,30.05,ENE,74,1.0,13.0,53,0.00,CLR,,0.00,WeatherDisplay:10.37,2013-05-28 18:29:00,
2013-05-28 14:44:00,87.9,66.9,30.05,East,81,2.0,12.0,50,0.00,CLR,,0.00,WeatherDisplay:10.37,2013-05-28 18:44:00,
2013-05-28 14:59:00,88.8,68.3,30.05,ENE,73,0.0,9.0,51,0.00,CLR,,0.00,WeatherDisplay:10.37,2013-05-28 18:59:00,
2013-05-28 15:14:00,87.8,68.0,30.04,ENE,76,0.0,8.0,52,0.00,CLR,,0.00,WeatherDisplay:10.37,2013-05-28 19:14:00,
2013-05-28 15:29:00,86.1,67.5,30.04,East,82,0.0,10.0,54,0.00,CLR,,0.00,WeatherDisplay:10.37,2013-05-28 19:29:00,
2013-05-28 15:44:00,85.6,67.0,30.04,East,84,2.0,10.0,54,0.00,CLR,,0.00,WeatherDisplay:10.37,2013-05-28 19:44:00,
2013-05-28 15:59:00,86.0,66.9,30.03,ESE,113,2.0,12.0,53,0.00,CLR,,0.00,WeatherDisplay:10.37,2013-05-28 19:59:00,
2013-05-28 16:14:00,86.3,67.2,30.02,ESE,105,1.0,12.0,53,0.00,CLR,,0.00,WeatherDisplay:10.37,2013-05-28 20:14:00,
2013-05-28 16:29:00,87.0,68.3,30.02,East,91,2.0,10.0,54,0.00,CLR,,0.00,WeatherDisplay:10.37,2013-05-28 20:29:00,
2013-05-28 16:44:00,87.0,68.9,30.02,East,89,0.0,10.0,55,0.00,CLR,,0.00,WeatherDisplay:10.37,2013-05-28 20:44:00,
2013-05-28 16:59:00,86.1,68.6,30.02,East,82,3.0,14.0,56,0.00,CLR,,0.00,WeatherDisplay:10.37,2013-05-28 20:59:00,
2013-05-28 17:14:00,85.8,68.3,30.02,East,92,2.0,12.0,56,0.00,CLR,,0.00,WeatherDisplay:10.37,2013-05-28 21:14:00,
2013-05-28 17:29:00,84.9,68.0,30.02,ESE,108,1.0,14.0,57,0.00,CLR,,0.00,WeatherDisplay:10.37,2013-05-28 21:29:00,
2013-05-28 17:44:00,84.7,68.8,30.02,ENE,73,1.0,12.0,59,0.00,CLR,,0.00,WeatherDisplay:10.37,2013-05-28 21:44:00,
2013-05-28 17:59:00,84.5,68.1,30.03,East,93,0.0,12.0,58,0.00,CLR,,0.00,WeatherDisplay:10.37,2013-05-28 21:59:00,
2013-05-28 18:14:00,84.5,68.6,30.03,East,81,1.0,8.0,59,0.00,CLR,,0.00,WeatherDisplay:10.37,2013-05-28 22:14:00,
2013-05-28 18:29:00,82.6,68.3,30.03,East,88,1.0,9.0,62,0.00,CLR,,0.00,WeatherDisplay:10.37,2013-05-28 22:29:00,
2013-05-28 18:44:00,82.0,68.1,30.04,ESE,107,1.0,10.0,63,0.00,CLR,,0.00,WeatherDisplay:10.37,2013-05-28 22:44:00,
2013-05-28 18:59:00,81.1,68.3,30.04,ESE,103,0.0,10.0,65,0.00,CLR,,0.00,WeatherDisplay:10.37,2013-05-28 22:59:00,
2013-05-28 19:14:00,80.6,68.6,30.04,East,79,3.0,12.0,67,0.00,CLR,,0.00,WeatherDisplay:10.37,2013-05-28 23:14:00,
2013-05-28 19:29:00,79.7,68.7,30.04,East,96,0.0,10.0,69,0.00,CLR,,0.00,WeatherDisplay:10.37,2013-05-28 23:29:00,
2013-05-28 19:44:00,79.4,68.8,30.04,ESE,111,0.0,12.0,70,0.00,CLR,,0.00,WeatherDisplay:10.37,2013-05-28 23:44:00,
2013-05-28 19:59:00,79.0,68.8,30.03,NE,51,1.0,7.0,71,0.00,CLR,,0.00,WeatherDisplay:10.37,2013-05-28 23:59:00,
2013-05-28 20:14:00,78.3,68.9,30.05,ENE,59,0.0,11.0,73,0.00,CLR,,0.00,WeatherDisplay:10.37,2013-05-29 00:14:00,
2013-05-28 20:29:00,77.7,68.7,30.05,ENE,62,2.0,12.0,74,0.00,CLR,,0.00,WeatherDisplay:10.37,2013-05-29 00:29:00,
2013-05-28 20:44:00,77.4,68.9,30.05,ENE,68,0.0,10.0,75,0.00,CLR,,0.00,WeatherDisplay:10.37,2013-05-29 00:44:00,
2013-05-28 20:59:00,77.0,68.9,30.05,East,89,0.0,10.0,76,0.00,,,0.00,WeatherDisplay:10.37,2013-05-29 00:59:00,
2013-05-28 21:14:00,76.7,69.0,30.05,ESE,108,0.0,12.0,77,0.00,,,0.00,WeatherDisplay:10.37,2013-05-29 01:14:00,
2013-05-28 21:29:00,76.3,68.9,30.06,East,94,0.0,10.0,78,0.00,,,0.00,WeatherDisplay:10.37,2013-05-29 01:29:00,
2013-05-28 21:44:00,76.1,69.1,30.06,ENE,61,0.0,8.0,79,0.00,,,0.00,WeatherDisplay:10.37,2013-05-29 01:44:00,
2013-05-28 21:59:00,75.8,68.8,30.06,ESE,114,0.0,9.0,79,0.00,,,0.00,WeatherDisplay:10.37,2013-05-29 01:59:00,
2013-05-28 22:14:00,75.6,69.0,30.07,ESE,106,0.0,2.0,80,0.00,,,0.00,WeatherDisplay:10.37,2013-05-29 02:14:00,
2013-05-28 22:29:00,75.4,69.2,30.07,NE,49,0.0,7.0,81,0.00,,,0.00,WeatherDisplay:10.37,2013-05-29 02:29:00,
2013-05-28 22:44:00,75.3,69.1,30.07,East,93,0.0,8.0,81,0.00,,,0.00,WeatherDisplay:10.37,2013-05-29 02:44:00,
2013-05-28 22:59:00,75.1,69.2,30.07,ESE,112,0.0,6.0,82,0.00,,,0.00,WeatherDisplay:10.37,2013-05-29 02:59:00,
2013-05-28 23:14:00,74.9,69.4,30.07,SE,134,0.0,0.0,83,0.00,,,0.00,WeatherDisplay:10.37,2013-05-29 03:14:00,
2013-05-28 23:29:00,74.7,69.2,30.07,East,90,0.0,1.0,83,0.00,,,0.00,WeatherDisplay:10.37,2013-05-29 03:29:00,
2013-05-28 23:44:00,74.6,69.4,30.07,North,360,0.0,0.0,84,0.00,,,0.00,WeatherDisplay:10.37,2013-05-29 03:44:00,
2013-05-28 23:59:00,74.4,69.6,30.07,North,3,0.0,0.0,85,0.00,,,0.00,WeatherDisplay:10.37,2013-05-29 03:59:00,